Time;durP1;ratioP1;P1;durP2;ratioP2;P2;SDS_P1;SDS_P2;PMS_P1;PMS_P2;Temp;Humidity;BMP_temperature;BMP_pressure;BME280_temperature;BME280_humidity;BME280_pressure;Samples;Min_cycle;Max_cycle;Signal;HPM_P1;HPM_P2
2022/06/04 00:00:10;;;;;;;6.03;0.77;;;;;;;;;;5094833;28;20032;-74
2022/06/04 00:02:41;;;;;;;3.35;1.00;;;;;;;;;;5090470;28;20400;-74
2022/06/04 00:05:08;;;;;;;4.03;1.45;;;;;;;;;;5088773;28;20019;-74
2022/06/04 00:07:35;;;;;;;3.30;0.70;;;;;;;;;;5087709;28;20026;-74
2022/06/04 00:15:38;;;;;;;2.70;1.20;;;;;;;;;;5095007;28;20120;-74
2022/06/04 00:18:05;;;;;;;2.50;1.85;;;;;;;;;;5094687;28;20379;-74
2022/06/04 00:20:32;;;;;;;3.28;0.80;;;;;;;;;;5095112;28;20029;-74
2022/06/04 00:23:02;;;;;;;2.83;0.70;;;;;;;;;;5093354;28;20031;-73
2022/06/04 00:25:29;;;;;;;3.63;1.23;;;;;;;;;;5089483;28;20024;-73
2022/06/04 00:28:03;;;;;;;3.13;1.00;;;;;;;;;;5089365;28;20030;-74
2022/06/04 00:30:29;;;;;;;1.65;0.90;;;;;;;;;;5089544;28;20107;-73
2022/06/04 00:32:56;;;;;;;2.42;1.23;;;;;;;;;;5089987;28;20027;-74
2022/06/04 00:35:23;;;;;;;8.85;1.38;;;;;;;;;;5093800;28;20029;-74
2022/06/04 00:37:50;;;;;;;4.18;1.25;;;;;;;;;;5094277;28;20116;-73
2022/06/04 00:40:23;;;;;;;8.20;1.15;;;;;;;;;;5093817;28;20375;-74
2022/06/04 00:42:50;;;;;;;2.97;0.98;;;;;;;;;;5094290;28;20022;-74
2022/06/04 00:45:22;;;;;;;7.47;1.93;;;;;;;;;;5093249;28;20027;-73
2022/06/04 00:47:50;;;;;;;6.32;1.25;;;;;;;;;;5088209;28;20112;-74
2022/06/04 00:50:18;;;;;;;4.05;1.20;;;;;;;;;;5089463;28;20028;-74
2022/06/04 00:52:46;;;;;;;2.70;1.50;;;;;;;;;;5089123;28;20032;-73
2022/06/04 00:55:13;;;;;;;1.77;1.00;;;;;;;;;;5089813;28;20024;-73
2022/06/04 00:58:02;;;;;;;4.20;1.17;;;;;;;;;;5094361;28;20024;-73
2022/06/04 01:00:29;;;;;;;2.83;1.30;;;;;;;;;;5081272;28;20043;-74
2022/06/04 01:03:11;;;;;;;1.93;0.90;;;;;;;;;;5093818;28;20436;-74
2022/06/04 01:05:56;;;;;;;4.20;1.20;;;;;;;;;;5093939;28;20016;-73
2022/06/04 01:08:32;;;;;;;4.13;1.10;;;;;;;;;;5091026;28;20055;-74
2022/06/04 01:10:59;;;;;;;4.17;1.30;;;;;;;;;;5089096;28;20047;-74
2022/06/04 01:13:44;;;;;;;13.20;1.57;;;;;;;;;;5088406;28;20241;-75
2022/06/04 01:16:10;;;;;;;;;;;;;;;;;;5088980;28;20016;-74
2022/06/04 01:18:41;;;;;;;4.93;1.30;;;;;;;;;;5090560;28;19916;-74
2022/06/04 01:21:07;;;;;;;3.47;1.47;;;;;;;;;;5093799;28;20020;-72
2022/06/04 01:24:00;;;;;;;4.47;1.00;;;;;;;;;;5093780;28;20024;-72
2022/06/04 01:26:38;;;;;;;4.30;1.13;;;;;;;;;;5093352;28;20053;-72
2022/06/04 01:29:07;;;;;;;6.03;1.40;;;;;;;;;;5093302;28;20055;-72
2022/06/04 01:31:46;;;;;;;5.13;1.33;;;;;;;;;;5089005;28;20028;-72
2022/06/04 01:34:14;;;;;;;5.17;1.23;;;;;;;;;;5088705;28;20043;-73
2022/06/04 01:36:46;;;;;;;2.27;1.27;;;;;;;;;;5088531;28;20106;-72
2022/06/04 01:39:16;;;;;;;3.13;1.70;;;;;;;;;;5069627;28;20035;-72
2022/06/04 01:41:49;;;;;;;3.93;1.30;;;;;;;;;;5092544;28;20032;-73
2022/06/04 01:44:21;;;;;;;5.10;1.30;;;;;;;;;;5093195;28;20024;-72
2022/06/04 01:46:52;;;;;;;4.20;1.20;;;;;;;;;;5093011;28;20036;-73
2022/06/04 01:49:37;;;;;;;3.10;1.13;;;;;;;;;;5093168;28;20028;-72
2022/06/04 01:52:03;;;;;;;;;;;;;;;;;;5084481;28;20020;-73
2022/06/04 01:54:33;;;;;;;17.77;1.93;;;;;;;;;;5088242;28;19912;-73
2022/06/04 01:57:02;;;;;;;11.20;1.57;;;;;;;;;;5088118;28;20028;-75
2022/06/04 01:59:44;;;;;;;4.07;1.10;;;;;;;;;;5088209;28;20129;-73
2022/06/04 02:02:22;;;;;;;3.60;1.10;;;;;;;;;;5072956;28;20023;-73
2022/06/04 02:04:52;;;;;;;3.97;1.33;;;;;;;;;;5093085;28;20024;-73
2022/06/04 02:07:31;;;;;;;2.57;1.20;;;;;;;;;;5092759;28;20038;-72
2022/06/04 02:10:01;;;;;;;3.50;0.90;;;;;;;;;;5092279;28;20364;-72
2022/06/04 02:12:28;;;;;;;5.40;1.50;;;;;;;;;;5092837;28;20032;-73
2022/06/04 02:14:55;;;;;;;7.77;1.33;;;;;;;;;;5091361;28;20071;-73
2022/06/04 02:17:24;;;;;;;2.87;1.20;;;;;;;;;;5088099;28;20368;-71
2022/06/04 02:19:50;;;;;;;3.03;1.30;;;;;;;;;;5087335;28;20028;-72
2022/06/04 02:22:17;;;;;;;3.83;1.10;;;;;;;;;;5087750;28;20028;-71
2022/06/04 02:24:45;;;;;;;2.07;0.90;;;;;;;;;;5088699;28;20051;-71
2022/06/04 02:27:12;;;;;;;5.13;1.50;;;;;;;;;;5092324;28;20477;-70
2022/06/04 02:29:39;;;;;;;2.77;0.97;;;;;;;;;;5092842;28;20027;-72
2022/06/04 02:32:15;;;;;;;3.40;1.57;;;;;;;;;;5092280;28;20559;-71
2022/06/04 02:35:01;;;;;;;3.27;1.50;;;;;;;;;;5092322;28;20032;-72
2022/06/04 02:38:00;;;;;;;2.17;1.10;;;;;;;;;;5090049;28;20028;-71
2022/06/04 02:40:34;;;;;;;5.40;2.00;;;;;;;;;;5053454;28;20032;-71
2022/06/04 02:43:10;;;;;;;5.67;1.60;;;;;;;;;;5087102;28;20034;-71
2022/06/04 02:45:40;;;;;;;2.67;1.40;;;;;;;;;;5087383;28;20129;-72
2022/06/04 02:48:10;;;;;;;2.13;0.93;;;;;;;;;;5090261;28;20050;-71
2022/06/04 02:50:40;;;;;;;9.53;1.97;;;;;;;;;;5092013;28;20056;-71
2022/06/04 02:53:08;;;;;;;3.70;1.40;;;;;;;;;;5092141;28;20028;-71
2022/06/04 02:55:41;;;;;;;2.93;1.20;;;;;;;;;;5091882;28;20020;-72
2022/06/04 02:58:10;;;;;;;3.30;1.53;;;;;;;;;;5092334;28;20028;-72
2022/06/04 03:00:37;;;;;;;4.87;1.37;;;;;;;;;;5088276;28;20099;-72
2022/06/04 03:03:04;;;;;;;3.50;1.60;;;;;;;;;;5080973;28;20031;-73
2022/06/04 03:05:31;;;;;;;3.97;1.33;;;;;;;;;;5091612;28;20027;-71
2022/06/04 03:08:04;;;;;;;5.60;1.77;;;;;;;;;;5091136;28;20039;-72
2022/06/04 03:10:34;;;;;;;5.47;1.60;;;;;;;;;;5093760;28;20027;-72
2022/06/04 03:13:01;;;;;;;6.53;1.40;;;;;;;;;;5095865;28;20027;-72
2022/06/04 03:15:28;;;;;;;2.43;0.97;;;;;;;;;;5096451;28;20058;-71
2022/06/04 03:17:55;;;;;;;14.33;1.60;;;;;;;;;;5096014;28;20035;-71
2022/06/04 03:20:23;;;;;;;1.67;0.90;;;;;;;;;;5096304;28;20141;-70
2022/06/04 03:22:50;;;;;;;3.20;1.37;;;;;;;;;;5092295;28;20024;-71
2022/06/04 03:25:17;;;;;;;3.20;1.30;;;;;;;;;;5090794;28;20102;-71
2022/06/04 03:27:45;;;;;;;2.37;1.13;;;;;;;;;;5090863;28;20490;-72
2022/06/04 03:30:12;;;;;;;3.30;1.23;;;;;;;;;;5090574;28;20032;-72
2022/06/04 03:32:38;;;;;;;3.13;1.10;;;;;;;;;;5093069;28;20036;-71
2022/06/04 03:35:05;;;;;;;5.30;1.20;;;;;;;;;;5096176;28;20360;-72
2022/06/04 03:37:32;;;;;;;5.87;1.03;;;;;;;;;;5095745;28;20432;-71
2022/06/04 03:39:59;;;;;;;5.87;1.93;;;;;;;;;;5095902;28;20052;-72
2022/06/04 03:42:25;;;;;;;1.87;0.90;;;;;;;;;;5094827;28;20028;-72
2022/06/04 03:44:52;;;;;;;2.97;0.83;;;;;;;;;;5093005;28;20425;-72
2022/06/04 03:47:19;;;;;;;2.60;0.93;;;;;;;;;;5090747;28;20507;-73
2022/06/04 03:49:49;;;;;;;3.27;1.07;;;;;;;;;;5090346;28;20024;-73
2022/06/04 03:52:16;;;;;;;3.40;1.40;;;;;;;;;;5090323;28;20031;-71
2022/06/04 03:54:56;;;;;;;2.03;0.70;;;;;;;;;;5092870;28;20078;-71
2022/06/04 03:57:40;;;;;;;1.70;0.90;;;;;;;;;;5095480;28;20106;-71
2022/06/04 04:00:07;;;;;;;2.58;0.70;;;;;;;;;;5094903;28;20379;-72
2022/06/04 04:02:34;;;;;;;1.20;0.60;;;;;;;;;;5095058;28;20024;-73
2022/06/04 04:05:01;;;;;;;1.60;0.70;;;;;;;;;;5095439;28;20020;-72
2022/06/04 04:07:27;;;;;;;4.23;0.50;;;;;;;;;;5091682;28;20103;-71
2022/06/04 04:09:54;;;;;;;2.27;0.77;;;;;;;;;;5090021;28;20024;-71
2022/06/04 04:12:21;;;;;;;1.63;0.63;;;;;;;;;;5089616;28;20530;-71
2022/06/04 04:14:48;;;;;;;1.70;0.80;;;;;;;;;;5088964;28;20035;-71
2022/06/04 04:17:14;;;;;;;2.40;0.80;;;;;;;;;;5092388;28;20035;-71
2022/06/04 04:19:41;;;;;;;2.37;0.63;;;;;;;;;;5095057;28;20040;-71
2022/06/04 04:22:08;;;;;;;3.23;0.63;;;;;;;;;;5094999;28;20475;-71
2022/06/04 04:24:34;;;;;;;2.90;1.03;;;;;;;;;;5094433;28;20027;-71
2022/06/04 04:27:01;;;;;;;2.13;0.80;;;;;;;;;;5094594;28;20039;-72
2022/06/04 04:29:28;;;;;;;1.87;0.60;;;;;;;;;;5086296;28;20066;-69
2022/06/04 04:31:54;;;;;;;1.90;0.60;;;;;;;;;;5077846;28;20039;-69
2022/06/04 04:34:21;;;;;;;1.57;0.70;;;;;;;;;;5085929;28;20043;-66
2022/06/04 04:36:48;;;;;;;1.90;0.40;;;;;;;;;;5069745;28;20020;-66
2022/06/04 04:39:14;;;;;;;2.40;0.70;;;;;;;;;;5071605;28;20482;-66
2022/06/04 04:41:41;;;;;;;3.93;0.60;;;;;;;;;;5074657;28;20052;-66
2022/06/04 04:44:08;;;;;;;2.80;0.80;;;;;;;;;;5074045;28;20032;-66
2022/06/04 04:46:35;;;;;;;5.03;0.70;;;;;;;;;;5078527;28;20442;-65
2022/06/04 04:49:02;;;;;;;2.13;0.70;;;;;;;;;;5094595;28;20017;-66
2022/06/04 04:51:30;;;;;;;0.77;0.37;;;;;;;;;;5092575;28;20032;-66
2022/06/04 04:53:57;;;;;;;3.10;0.90;;;;;;;;;;5089694;28;20086;-65
2022/06/04 04:56:25;;;;;;;2.40;1.00;;;;;;;;;;5089696;28;20437;-66
2022/06/04 04:58:51;;;;;;;1.60;0.47;;;;;;;;;;5089499;28;20031;-66
2022/06/04 05:01:25;;;;;;;5.03;0.80;;;;;;;;;;5089688;28;20463;-66
2022/06/04 05:03:53;;;;;;;1.50;0.65;;;;;;;;;;5093994;28;20093;-66
2022/06/04 05:06:20;;;;;;;2.20;0.60;;;;;;;;;;5094091;28;20031;-66
2022/06/04 05:08:48;;;;;;;1.93;0.60;;;;;;;;;;5094057;28;20047;-66
2022/06/04 05:11:18;;;;;;;4.23;0.80;;;;;;;;;;5094309;28;20020;-67
2022/06/04 05:13:52;;;;;;;2.27;0.80;;;;;;;;;;5091620;28;20036;-66
2022/06/04 05:16:19;;;;;;;3.77;0.70;;;;;;;;;;5089101;28;20496;-67
2022/06/04 05:18:46;;;;;;;2.00;0.60;;;;;;;;;;5089165;28;20487;-67
2022/06/04 05:21:19;;;;;;;1.57;0.70;;;;;;;;;;5089153;28;20028;-67
2022/06/04 05:23:46;;;;;;;1.07;0.37;;;;;;;;;;5089733;28;20036;-67
2022/06/04 05:26:12;;;;;;;1.67;0.70;;;;;;;;;;5093429;28;20021;-66
2022/06/04 05:28:39;;;;;;;1.50;0.53;;;;;;;;;;5093338;28;20077;-67
2022/06/04 05:31:06;;;;;;;4.07;0.50;;;;;;;;;;5093875;28;20141;-67
2022/06/04 05:33:32;;;;;;;2.50;0.80;;;;;;;;;;5093422;28;20467;-67
2022/06/04 05:35:59;;;;;;;4.90;1.60;;;;;;;;;;5092285;28;20116;-67
2022/06/04 05:38:26;;;;;;;1.73;0.70;;;;;;;;;;5088694;28;20025;-67
2022/06/04 05:41:03;;;;;;;2.53;0.73;;;;;;;;;;5088753;28;20479;-67
2022/06/04 05:43:30;;;;;;;1.33;0.70;;;;;;;;;;5087827;28;20054;-67
2022/06/04 05:46:00;;;;;;;2.40;0.80;;;;;;;;;;5089978;28;20410;-66
2022/06/04 05:48:27;;;;;;;0.93;0.50;;;;;;;;;;5093510;28;20581;-66
2022/06/04 05:50:55;;;;;;;1.27;0.63;;;;;;;;;;5093591;28;20081;-66
2022/06/04 05:53:22;;;;;;;3.83;0.50;;;;;;;;;;5093019;28;20103;-66
2022/06/04 05:55:50;;;;;;;1.67;0.83;;;;;;;;;;5093360;28;20025;-67
2022/06/04 05:58:16;;;;;;;3.83;1.73;;;;;;;;;;5091115;28;20027;-66
2022/06/04 06:00:43;;;;;;;4.43;0.90;;;;;;;;;;5088082;28;20052;-67
2022/06/04 06:03:10;;;;;;;1.13;0.60;;;;;;;;;;5088144;28;20034;-66
2022/06/04 06:05:42;;;;;;;1.37;0.70;;;;;;;;;;5088112;28;20349;-66
2022/06/04 06:08:08;;;;;;;1.57;0.67;;;;;;;;;;5088830;28;20035;-67
2022/06/04 06:10:44;;;;;;;0.67;0.50;;;;;;;;;;5093386;28;20356;-67
2022/06/04 06:13:12;;;;;;;1.33;0.43;;;;;;;;;;5092299;28;20099;-67
2022/06/04 06:15:39;;;;;;;6.23;0.90;;;;;;;;;;5093125;28;20036;-66
2022/06/04 06:18:06;;;;;;;3.07;0.83;;;;;;;;;;5092851;28;20089;-66
2022/06/04 06:20:33;;;;;;;3.10;1.10;;;;;;;;;;5091508;28;20020;-66
2022/06/04 06:23:00;;;;;;;3.57;0.60;;;;;;;;;;5087539;28;20107;-67
2022/06/04 06:25:28;;;;;;;0.77;0.40;;;;;;;;;;5087916;28;20028;-67
2022/06/04 06:27:54;;;;;;;1.67;0.67;;;;;;;;;;5087421;28;20378;-66
2022/06/04 06:30:21;;;;;;;4.13;0.70;;;;;;;;;;5088536;28;20073;-66
2022/06/04 06:32:48;;;;;;;1.53;0.73;;;;;;;;;;5092559;28;20020;-66
2022/06/04 06:35:14;;;;;;;1.87;0.90;;;;;;;;;;5092599;28;20051;-66
2022/06/04 06:37:41;;;;;;;3.40;0.67;;;;;;;;;;5092243;28;20031;-67
2022/06/04 06:40:08;;;;;;;2.83;0.43;;;;;;;;;;5092518;28;20023;-66
2022/06/04 06:42:35;;;;;;;2.67;0.90;;;;;;;;;;5091527;28;20039;-66
2022/06/04 06:45:02;;;;;;;0.70;0.40;;;;;;;;;;5087143;28;20077;-67
2022/06/04 06:47:28;;;;;;;2.40;0.60;;;;;;;;;;5087657;28;20106;-67
2022/06/04 06:49:55;;;;;;;3.30;0.63;;;;;;;;;;5087254;28;20024;-67
2022/06/04 06:52:22;;;;;;;0.73;0.40;;;;;;;;;;5087529;28;20239;-66
2022/06/04 06:54:48;;;;;;;0.53;0.40;;;;;;;;;;5092441;28;20039;-67
2022/06/04 06:57:17;;;;;;;1.17;0.60;;;;;;;;;;5092607;28;20348;-67
2022/06/04 06:59:46;;;;;;;4.17;1.00;;;;;;;;;;5092484;28;20028;-66
2022/06/04 07:02:13;;;;;;;1.13;0.60;;;;;;;;;;5091815;28;20130;-67
2022/06/04 07:04:39;;;;;;;2.23;0.73;;;;;;;;;;5092208;28;20417;-66
2022/06/04 07:07:06;;;;;;;1.67;0.60;;;;;;;;;;5087274;28;20055;-66
2022/06/04 07:09:35;;;;;;;0.87;0.40;;;;;;;;;;5087187;28;20028;-66
2022/06/04 07:12:02;;;;;;;1.00;0.40;;;;;;;;;;5086868;28;20032;-66
2022/06/04 07:14:29;;;;;;;1.93;0.70;;;;;;;;;;5087044;28;20040;-67
2022/06/04 07:16:57;;;;;;;0.97;0.50;;;;;;;;;;5091931;28;20479;-66
2022/06/04 07:19:24;;;;;;;2.17;0.90;;;;;;;;;;5092551;28;20016;-66
2022/06/04 07:21:52;;;;;;;1.30;0.67;;;;;;;;;;5092005;28;20035;-66
2022/06/04 07:24:18;;;;;;;2.33;0.53;;;;;;;;;;5091858;28;20036;-66
2022/06/04 07:26:45;;;;;;;1.13;0.50;;;;;;;;;;5091950;28;20020;-66
2022/06/04 07:29:12;;;;;;;2.13;0.70;;;;;;;;;;5086845;28;20081;-67
2022/06/04 07:31:39;;;;;;;3.43;0.90;;;;;;;;;;5087110;28;20475;-66
2022/06/04 07:34:06;;;;;;;0.87;0.50;;;;;;;;;;5086678;28;20561;-66
2022/06/04 07:36:34;;;;;;;5.57;0.87;;;;;;;;;;5087039;28;20024;-66
2022/06/04 07:39:01;;;;;;;3.93;1.13;;;;;;;;;;5091153;28;20032;-67
2022/06/04 07:41:29;;;;;;;4.67;1.03;;;;;;;;;;5091647;28;20028;-66
2022/06/04 07:43:56;;;;;;;1.87;1.23;;;;;;;;;;5091935;28;20032;-67
2022/06/04 07:46:24;;;;;;;1.30;0.50;;;;;;;;;;5092267;28;20020;-66
2022/06/04 07:48:50;;;;;;;1.80;0.80;;;;;;;;;;5092043;28;20024;-66
2022/06/04 07:51:18;;;;;;;1.33;0.70;;;;;;;;;;5090504;28;20089;-66
2022/06/04 07:53:45;;;;;;;1.17;0.70;;;;;;;;;;5090661;28;20032;-66
2022/06/04 07:56:14;;;;;;;2.43;0.60;;;;;;;;;;5090633;28;20398;-67
2022/06/04 07:58:40;;;;;;;1.37;0.60;;;;;;;;;;5090673;28;20020;-66
2022/06/04 08:01:08;;;;;;;0.93;0.50;;;;;;;;;;5094190;28;20020;-66
2022/06/04 08:03:35;;;;;;;1.73;0.80;;;;;;;;;;5095457;28;20013;-66
2022/06/04 08:06:03;;;;;;;2.00;0.80;;;;;;;;;;5095086;28;20020;-66
2022/06/04 08:08:32;;;;;;;0.57;0.40;;;;;;;;;;5095518;28;20078;-66
2022/06/04 08:10:59;;;;;;;2.13;0.70;;;;;;;;;;5095020;28;20020;-66
2022/06/04 08:13:26;;;;;;;2.47;0.83;;;;;;;;;;5091073;28;20085;-66
2022/06/04 08:15:57;;;;;;;1.40;0.70;;;;;;;;;;5090345;28;20103;-66
2022/06/04 08:18:24;;;;;;;2.03;0.60;;;;;;;;;;5089790;28;20050;-66
2022/06/04 08:20:50;;;;;;;1.47;0.80;;;;;;;;;;5089833;28;20035;-66
2022/06/04 08:23:17;;;;;;;0.63;0.40;;;;;;;;;;5093818;28;20352;-66
2022/06/04 08:25:47;;;;;;;3.63;1.53;;;;;;;;;;5095340;28;20376;-66
2022/06/04 08:28:17;;;;;;;1.20;0.60;;;;;;;;;;5094886;28;20023;-66
2022/06/04 08:30:44;;;;;;;3.63;0.83;;;;;;;;;;5095029;28;20020;-66
2022/06/04 08:33:11;;;;;;;2.10;0.83;;;;;;;;;;5095057;28;20074;-66
2022/06/04 08:35:38;;;;;;;3.73;1.03;;;;;;;;;;5090854;28;20433;-66
2022/06/04 08:38:04;;;;;;;0.90;0.57;;;;;;;;;;5089244;28;20418;-66
2022/06/04 08:40:31;;;;;;;2.27;0.80;;;;;;;;;;5089446;28;20771;-66
2022/06/04 08:43:11;;;;;;;1.87;0.60;;;;;;;;;;5089841;28;20031;-66
2022/06/04 08:45:39;;;;;;;1.20;0.50;;;;;;;;;;5093367;28;20063;-66
2022/06/04 08:48:12;;;;;;;1.83;0.67;;;;;;;;;;5094666;28;20024;-67
2022/06/04 08:50:39;;;;;;;1.10;0.60;;;;;;;;;;5094338;28;20055;-67
2022/06/04 08:53:06;;;;;;;1.33;0.67;;;;;;;;;;5094794;28;20020;-66
2022/06/04 08:58:34;;;;;;;4.97;1.30;;;;;;;;;;5089512;28;20454;-66
2022/06/04 09:01:07;;;;;;;1.80;0.80;;;;;;;;;;5088596;28;20474;-66
2022/06/04 09:03:46;;;;;;;2.73;0.80;;;;;;;;;;5089401;28;20016;-66
2022/06/04 09:06:28;;;;;;;5.47;1.00;;;;;;;;;;5089121;28;20027;-66
2022/06/04 09:09:13;;;;;;;2.13;0.70;;;;;;;;;;5094319;28;20016;-66
2022/06/04 09:11:58;;;;;;;3.58;0.95;;;;;;;;;;5094262;28;20039;-66
2022/06/04 09:14:45;;;;;;;1.55;0.70;;;;;;;;;;5094189;28;20028;-66
2022/06/04 09:17:41;;;;;;;1.80;0.70;;;;;;;;;;5093937;28;20031;-66
2022/06/04 09:20:26;;;;;;;2.53;0.97;;;;;;;;;;5068890;28;20097;-66
2022/06/04 09:22:55;;;;;;;1.13;0.60;;;;;;;;;;5089077;28;20519;-66
2022/06/04 09:25:24;;;;;;;1.90;0.60;;;;;;;;;;5088402;28;20024;-66
2022/06/04 09:28:02;;;;;;;2.03;0.87;;;;;;;;;;5089072;28;20020;-67
2022/06/04 09:30:36;;;;;;;2.87;0.67;;;;;;;;;;5092497;28;20032;-66
2022/06/04 09:33:02;;;;;;;2.30;0.80;;;;;;;;;;5093933;28;20455;-66
2022/06/04 09:35:31;;;;;;;3.33;0.90;;;;;;;;;;5093386;28;20039;-67
2022/06/04 09:37:59;;;;;;;1.10;0.70;;;;;;;;;;5093828;28;20371;-66
2022/06/04 09:40:28;;;;;;;2.30;1.07;;;;;;;;;;5093628;28;20028;-66
2022/06/04 09:43:16;;;;;;;6.10;0.80;;;;;;;;;;5088763;28;20034;-66
2022/06/04 09:45:51;;;;;;;2.13;0.80;;;;;;;;;;5088114;28;20024;-66
2022/06/04 09:48:22;;;;;;;1.25;0.60;;;;;;;;;;5088495;28;20430;-67
2022/06/04 09:50:55;;;;;;;1.40;0.70;;;;;;;;;;5088445;28;20146;-67
2022/06/04 09:53:26;;;;;;;0.97;0.60;;;;;;;;;;5093493;28;20024;-67
2022/06/04 09:55:56;;;;;;;2.13;0.70;;;;;;;;;;5092989;28;20024;-66
2022/06/04 09:58:42;;;;;;;1.70;0.80;;;;;;;;;;5093505;28;20463;-66
2022/06/04 10:01:09;;;;;;;3.30;0.70;;;;;;;;;;5093229;28;20428;-67
2022/06/04 10:03:37;;;;;;;1.33;0.80;;;;;;;;;;5091653;28;20483;-66
2022/06/04 10:06:10;;;;;;;1.73;0.73;;;;;;;;;;5087568;28;20474;-66
2022/06/04 10:11:24;;;;;;;2.67;0.77;;;;;;;;;;5088346;28;20046;-67
2022/06/04 10:13:56;;;;;;;0.80;0.60;;;;;;;;;;5089597;28;20051;-66
2022/06/04 10:16:25;;;;;;;0.80;0.40;;;;;;;;;;5092759;28;20024;-66
2022/06/04 10:18:55;;;;;;;1.43;0.77;;;;;;;;;;5093097;28;20024;-67
2022/06/04 10:21:23;;;;;;;1.70;1.00;;;;;;;;;;5093001;28;20028;-66
2022/06/04 10:23:52;;;;;;;2.20;0.90;;;;;;;;;;5093020;28;20024;-66
2022/06/04 10:26:21;;;;;;;2.33;0.60;;;;;;;;;;5090019;28;20526;-66
2022/06/04 10:28:57;;;;;;;1.53;0.70;;;;;;;;;;5087927;28;20024;-66
2022/06/04 10:31:50;;;;;;;2.93;0.90;;;;;;;;;;5087779;28;20471;-66
2022/06/04 10:34:17;;;;;;;4.43;1.10;;;;;;;;;;5084272;28;20512;-66
2022/06/04 10:37:02;;;;;;;2.47;0.80;;;;;;;;;;5090144;28;20106;-67
2022/06/04 10:39:28;;;;;;;1.88;0.65;;;;;;;;;;5092852;28;20030;-66
2022/06/04 10:42:05;;;;;;;1.77;0.70;;;;;;;;;;5092815;28;20028;-66
2022/06/04 10:45:04;;;;;;;1.83;0.70;;;;;;;;;;5092119;28;20073;-66
2022/06/04 10:47:31;;;;;;;2.30;1.00;;;;;;;;;;5037247;28;20040;-67
2022/06/04 10:50:17;;;;;;;2.17;1.00;;;;;;;;;;5087594;28;20461;-66
2022/06/04 10:52:44;;;;;;;1.50;0.90;;;;;;;;;;5087485;28;20082;-66
2022/06/04 10:55:21;;;;;;;2.63;1.07;;;;;;;;;;5087399;28;20035;-66
2022/06/04 10:57:54;;;;;;;1.30;0.70;;;;;;;;;;5087211;28;20063;-66
2022/06/04 11:00:23;;;;;;;2.77;0.80;;;;;;;;;;5092578;28;20104;-66
2022/06/04 11:03:04;;;;;;;2.20;1.10;;;;;;;;;;5092186;28;20609;-66
2022/06/04 11:05:33;;;;;;;2.37;0.90;;;;;;;;;;5092204;28;20016;-67
2022/06/04 11:08:00;;;;;;;3.13;1.07;;;;;;;;;;5092512;28;20012;-66
2022/06/04 11:10:27;;;;;;;2.03;0.83;;;;;;;;;;5090975;28;20074;-66
2022/06/04 11:12:53;;;;;;;2.07;1.00;;;;;;;;;;5087023;28;20040;-66
2022/06/04 11:15:23;;;;;;;3.10;0.90;;;;;;;;;;5086957;28;20404;-66
2022/06/04 11:17:55;;;;;;;3.83;0.97;;;;;;;;;;5087127;28;20036;-66
2022/06/04 11:20:25;;;;;;;2.77;1.10;;;;;;;;;;5088144;28;20027;-66
2022/06/04 11:23:00;;;;;;;1.13;0.80;;;;;;;;;;5092167;28;20024;-66
2022/06/04 11:25:32;;;;;;;3.90;1.17;;;;;;;;;;5094653;28;20055;-67
2022/06/04 11:27:59;;;;;;;3.80;1.30;;;;;;;;;;5076147;28;20547;-66
2022/06/04 11:30:38;;;;;;;5.73;1.40;;;;;;;;;;5075935;28;20048;-66
2022/06/04 11:33:19;;;;;;;4.00;1.20;;;;;;;;;;5073592;28;20093;-66
2022/06/04 11:35:52;;;;;;;1.93;0.87;;;;;;;;;;5086364;28;20061;-66
2022/06/04 11:38:25;;;;;;;1.90;0.90;;;;;;;;;;5091025;28;20028;-66
2022/06/04 11:41:04;;;;;;;2.50;0.90;;;;;;;;;;5091052;28;20022;-66
2022/06/04 11:43:54;;;;;;;5.37;1.50;;;;;;;;;;5093512;28;20026;-66
2022/06/04 11:46:21;;;;;;;4.40;1.10;;;;;;;;;;5049300;28;20040;-66
2022/06/04 11:49:09;;;;;;;3.07;1.07;;;;;;;;;;5095981;28;20035;-67
2022/06/04 11:51:37;;;;;;;9.17;1.53;;;;;;;;;;5096070;28;20457;-66
2022/06/04 11:54:22;;;;;;;2.50;0.90;;;;;;;;;;5095300;28;20043;-66
2022/06/04 11:56:51;;;;;;;2.45;1.10;;;;;;;;;;5090252;28;20028;-66
2022/06/04 11:59:24;;;;;;;3.80;1.10;;;;;;;;;;5090409;28;20378;-66
2022/06/04 12:02:06;;;;;;;4.73;1.37;;;;;;;;;;5090543;28;20044;-66
2022/06/04 12:04:56;;;;;;;3.67;1.20;;;;;;;;;;5090348;28;20028;-67
2022/06/04 12:07:34;;;;;;;2.43;1.20;;;;;;;;;;5055975;28;20491;-66
2022/06/04 12:10:05;;;;;;;8.23;1.50;;;;;;;;;;5075364;28;20025;-66
2022/06/04 12:12:34;;;;;;;2.60;1.40;;;;;;;;;;5075098;28;20481;-66
2022/06/04 12:15:13;;;;;;;4.40;1.53;;;;;;;;;;5078702;28;20032;-66
2022/06/04 12:17:48;;;;;;;1.70;1.10;;;;;;;;;;5092924;28;20028;-66
2022/06/04 12:25:46;;;;;;;3.25;1.17;;;;;;;;;;5089946;28;20127;-67
2022/06/04 12:28:22;;;;;;;3.13;1.30;;;;;;;;;;5093179;28;20073;-66
2022/06/04 12:30:48;;;;;;;2.57;1.40;;;;;;;;;;5094897;28;20024;-66
2022/06/04 12:33:27;;;;;;;4.47;1.23;;;;;;;;;;5094891;28;20046;-66
2022/06/04 12:35:56;;;;;;;3.10;1.50;;;;;;;;;;5093575;28;20036;-67
2022/06/04 12:38:25;;;;;;;3.77;1.27;;;;;;;;;;5094210;28;20055;-66
2022/06/04 12:40:51;;;;;;;3.73;1.60;;;;;;;;;;5090936;28;20458;-66
2022/06/04 12:43:22;;;;;;;3.00;1.70;;;;;;;;;;5089852;28;20475;-66
2022/06/04 12:45:50;;;;;;;4.97;2.40;;;;;;;;;;5089559;28;20024;-66
2022/06/04 12:48:36;;;;;;;9.73;4.30;;;;;;;;;;5089648;28;20475;-66
2022/06/04 12:51:08;;;;;;;7.00;4.50;;;;;;;;;;5093675;28;20016;-66
2022/06/04 12:53:36;;;;;;;4.93;3.20;;;;;;;;;;5094623;28;20534;-66
2022/06/04 12:56:06;;;;;;;7.20;3.20;;;;;;;;;;5094403;28;20024;-66
2022/06/04 12:58:40;;;;;;;4.57;2.10;;;;;;;;;;5094425;28;20020;-66
2022/06/04 13:01:27;;;;;;;6.10;2.20;;;;;;;;;;5094003;28;20016;-66
2022/06/04 13:04:12;;;;;;;3.13;1.40;;;;;;;;;;5072604;28;20040;-66
2022/06/04 13:06:44;;;;;;;2.50;1.38;;;;;;;;;;5089183;28;20024;-66
2022/06/04 13:09:23;;;;;;;3.23;1.50;;;;;;;;;;5089291;28;20426;-66
2022/06/04 13:11:56;;;;;;;7.83;1.80;;;;;;;;;;5090219;28;20028;-66
2022/06/04 13:14:34;;;;;;;7.03;1.77;;;;;;;;;;5094262;28;20032;-66
2022/06/04 13:17:13;;;;;;;8.30;2.23;;;;;;;;;;5093376;28;20111;-66
2022/06/04 13:19:40;;;;;;;6.23;2.20;;;;;;;;;;5094001;28;20023;-66
2022/06/04 13:22:12;;;;;;;9.90;3.70;;;;;;;;;;5094137;28;20030;-66
2022/06/04 13:24:39;;;;;;;9.17;4.83;;;;;;;;;;5091609;28;20370;-66
2022/06/04 13:27:10;;;;;;;13.37;6.60;;;;;;;;;;5088650;28;20019;-67
2022/06/04 13:29:38;;;;;;;14.47;6.20;;;;;;;;;;5088522;28;20028;-66
2022/06/04 13:32:12;;;;;;;15.50;6.33;;;;;;;;;;5088541;28;20038;-67
2022/06/04 13:34:39;;;;;;;13.68;6.38;;;;;;;;;;5091050;28;20111;-67
2022/06/04 13:37:08;;;;;;;15.50;6.97;;;;;;;;;;5093834;28;20028;-67
2022/06/04 13:39:36;;;;;;;13.83;6.57;;;;;;;;;;5093778;28;20069;-67
2022/06/04 13:42:14;;;;;;;12.50;6.10;;;;;;;;;;5092758;28;20458;-67
2022/06/04 13:44:43;;;;;;;9.97;5.13;;;;;;;;;;5093532;28;20013;-68
2022/06/04 13:47:15;;;;;;;9.40;4.67;;;;;;;;;;5090063;28;20028;-67
2022/06/04 13:49:43;;;;;;;7.23;3.97;;;;;;;;;;5088499;28;20024;-67
2022/06/04 13:52:21;;;;;;;13.87;4.47;;;;;;;;;;5088404;28;20024;-67
2022/06/04 13:54:55;;;;;;;7.57;3.63;;;;;;;;;;5088458;28;20057;-67
2022/06/04 13:57:27;;;;;;;6.18;2.92;;;;;;;;;;5091252;28;20414;-67
2022/06/04 13:59:57;;;;;;;7.33;3.07;;;;;;;;;;5093306;28;20103;-67
2022/06/04 14:02:25;;;;;;;6.20;3.07;;;;;;;;;;5093132;28;20028;-67
2022/06/04 14:07:40;;;;;;;6.90;2.27;;;;;;;;;;5093674;28;20039;-67
2022/06/04 14:10:24;;;;;;;5.63;2.87;;;;;;;;;;5088715;28;20020;-67
2022/06/04 14:13:12;;;;;;;7.25;2.60;;;;;;;;;;5087525;28;20032;-68
2022/06/04 14:15:39;;;;;;;6.30;2.23;;;;;;;;;;5087904;28;20047;-68
2022/06/04 14:18:25;;;;;;;5.53;2.30;;;;;;;;;;5088113;28;20450;-67
2022/06/04 14:20:57;;;;;;;6.90;2.47;;;;;;;;;;5092555;28;20024;-67
2022/06/04 14:23:33;;;;;;;6.20;2.30;;;;;;;;;;5092989;28;20024;-67
2022/06/04 14:26:00;;;;;;;4.10;1.80;;;;;;;;;;5092971;28;20059;-67
2022/06/04 14:28:32;;;;;;;5.07;1.87;;;;;;;;;;5092896;28;20024;-68
2022/06/04 14:31:07;;;;;;;3.93;1.70;;;;;;;;;;5090473;28;20024;-69
2022/06/04 14:33:34;;;;;;;5.63;2.40;;;;;;;;;;5087653;28;20024;-68
2022/06/04 14:36:01;;;;;;;3.40;1.67;;;;;;;;;;5087670;28;20474;-69
2022/06/04 14:38:29;;;;;;;9.73;2.20;;;;;;;;;;5087910;28;20027;-68
2022/06/04 14:41:13;;;;;;;9.17;2.97;;;;;;;;;;5088493;28;20016;-68
2022/06/04 14:43:59;;;;;;;3.88;1.80;;;;;;;;;;5092829;28;20466;-68
2022/06/04 14:46:28;;;;;;;4.07;1.83;;;;;;;;;;5092724;28;20095;-68
2022/06/04 14:49:15;;;;;;;4.33;2.03;;;;;;;;;;5092606;28;20099;-68
2022/06/04 14:51:53;;;;;;;9.17;2.10;;;;;;;;;;5092301;28;20032;-68
2022/06/04 14:54:20;;;;;;;7.83;2.10;;;;;;;;;;5088664;28;20032;-67
2022/06/04 14:57:22;;;;;;;4.83;2.53;;;;;;;;;;5087442;28;20077;-68
2022/06/04 15:00:09;;;;;;;5.17;2.37;;;;;;;;;;5024235;28;21430;-67
2022/06/04 15:02:54;;;;;;;6.67;2.40;;;;;;;;;;5083511;28;20058;-68
2022/06/04 15:05:25;;;;;;;4.17;1.90;;;;;;;;;;5092483;28;20435;-68
2022/06/04 15:08:18;;;;;;;5.10;2.10;;;;;;;;;;5092357;28;20025;-68
2022/06/04 15:10:57;;;;;;;2.87;1.40;;;;;;;;;;5087684;28;20036;-68
2022/06/04 15:13:39;;;;;;;4.60;2.15;;;;;;;;;;5072284;28;20028;-68
2022/06/04 15:16:15;;;;;;;3.88;1.80;;;;;;;;;;5069342;28;20048;-68
2022/06/04 15:19:00;;;;;;;3.72;1.73;;;;;;;;;;5066918;28;20078;-68
2022/06/04 15:21:48;;;;;;;6.95;2.15;;;;;;;;;;5071791;28;20083;-69
2022/06/04 15:24:22;;;;;;;6.22;2.05;;;;;;;;;;5087210;28;20024;-68
2022/06/04 15:26:53;;;;;;;4.85;1.63;;;;;;;;;;5090915;28;20036;-68